Terminal Aerodrome Forecast
Issued by NWS Northern Indiana

Home | Current Version | Previous Version | Text Only | Print | Product List | Glossary Off
Versions: 1 2 3 4 5 6 7 8 9 10 11 12 13 14 15 16 17 18 19

629
FTUS43 KIWX 240412 AAA
TAFFWA
TAF AMD
KFWA 240412Z 2404/2424 10006KT P6SM OVC035 WS020/21041KT
      TEMPO 2404/2408 4SM -SHRA BR
     FM240800 15007KT P6SM OVC035 WS020/21045KT
     FM241400 19013KT P6SM OVC025
     FM241700 20016G24KT P6SM OVC040=

USA.gov is the U.S. government's official web portal to all federal, state and local government web resources and services.